Time;durP1;ratioP1;P1;durP2;ratioP2;P2;SDS_P1;SDS_P2;PMS_P1;PMS_P2;Temp;Humidity;BMP_temperature;BMP_pressure;BME280_temperature;BME280_humidity;BME280_pressure;Samples;Min_cycle;Max_cycle;Signal;HPM_P1;HPM_P2
2021/09/16 00:01:29;;;;;;;4.47;1.17;;;16.40;97.00;;;;;;4971826;28;20130;-89
2021/09/16 00:03:54;;;;;;;6.53;1.13;;;16.30;96.80;;;;;;4963212;28;20038;-89
2021/09/16 00:06:20;;;;;;;4.95;1.38;;;16.40;96.70;;;;;;4955874;28;20397;-88
2021/09/16 00:08:46;;;;;;;6.35;1.65;;;16.40;96.60;;;;;;4961190;28;20030;-89
2021/09/16 00:11:11;;;;;;;2.53;1.33;;;16.30;96.60;;;;;;4963252;28;20373;-90
2021/09/16 00:13:37;;;;;;;3.63;0.90;;;16.20;96.40;;;;;;4962591;28;20033;-90
2021/09/16 00:16:03;;;;;;;3.35;0.80;;;16.20;96.40;;;;;;4967355;28;20038;-90
2021/09/16 00:18:28;;;;;;;3.75;0.75;;;16.10;96.50;;;;;;4965099;28;20046;-92
2021/09/16 00:20:54;;;;;;;5.25;0.90;;;16.10;96.40;;;;;;4963532;28;20042;-90
2021/09/16 00:23:19;;;;;;;3.15;1.10;;;16.20;96.30;;;;;;4960315;28;20041;-90
2021/09/16 00:25:45;;;;;;;3.90;0.80;;;16.10;96.30;;;;;;4967507;28;20025;-90
2021/09/16 00:28:11;;;;;;;4.72;1.02;;;15.90;96.30;;;;;;4978871;28;20626;-90
2021/09/16 00:30:36;;;;;;;6.32;0.98;;;15.90;96.40;;;;;;4981455;28;20101;-92
2021/09/16 00:33:02;;;;;;;3.90;0.82;;;15.90;96.60;;;;;;4967086;28;20124;-91
2021/09/16 00:35:28;;;;;;;6.03;1.00;;;15.90;96.50;;;;;;4980706;28;20030;-92
2021/09/16 00:37:53;;;;;;;0.90;0.77;;;15.90;96.30;;;;;;4964354;28;20034;-92
2021/09/16 00:40:19;;;;;;;4.57;1.20;;;15.90;96.20;;;;;;4964738;28;20054;-92
2021/09/16 00:42:45;;;;;;;4.15;0.95;;;15.80;96.10;;;;;;4966271;28;20026;-92
2021/09/16 00:45:11;;;;;;;5.18;0.90;;;15.90;96.20;;;;;;4976687;28;20433;-92
2021/09/16 00:47:39;;;;;;;2.63;1.00;;;15.80;96.20;;;;;;4960918;28;20148;-90
2021/09/16 00:50:05;;;;;;;3.35;1.08;;;15.80;96.40;;;;;;4965177;28;20740;-91
2021/09/16 00:52:32;;;;;;;3.25;1.20;;;15.90;96.30;;;;;;4967447;28;20030;-89
2021/09/16 00:54:57;;;;;;;3.17;1.55;;;15.80;96.30;;;;;;4962008;28;20031;-90
2021/09/16 00:57:23;;;;;;;5.53;1.30;;;15.70;96.20;;;;;;4965166;28;20114;-90
2021/09/16 00:59:49;;;;;;;2.10;1.80;;;15.80;96.00;;;;;;4976012;28;20030;-90
2021/09/16 01:02:15;;;;;;;6.13;1.63;;;15.70;96.20;;;;;;4962045;28;20390;-91
2021/09/16 01:04:40;;;;;;;3.92;1.60;;;15.70;95.80;;;;;;4964051;28;20026;-91
2021/09/16 01:07:13;;;;;;;3.67;1.88;;;15.80;96.00;;;;;;4996389;28;20034;-90
2021/09/16 01:09:38;;;;;;;3.15;1.90;;;15.80;96.10;;;;;;4964679;28;20088;-90
2021/09/16 01:12:04;;;;;;;7.38;2.75;;;15.80;96.00;;;;;;4960977;28;20029;-90
2021/09/16 01:14:30;;;;;;;4.35;1.90;;;15.70;96.20;;;;;;4943747;28;20027;-90
2021/09/16 01:16:58;;;;;;;6.07;1.83;;;15.80;96.10;;;;;;4965079;28;20022;-90
2021/09/16 01:19:33;;;;;;;4.63;2.00;;;15.90;95.80;;;;;;4962756;28;20041;-90
2021/09/16 01:21:59;;;;;;;5.75;1.60;;;15.80;95.80;;;;;;4979773;28;20033;-91
2021/09/16 01:24:24;;;;;;;2.50;1.30;;;15.90;96.00;;;;;;4975961;28;20076;-90
2021/09/16 01:26:50;;;;;;;6.43;1.50;;;15.90;95.90;;;;;;4965161;28;20041;-89
2021/09/16 01:29:16;;;;;;;5.95;1.60;;;15.90;95.80;;;;;;4960119;28;20030;-90
2021/09/16 01:31:43;;;;;;;4.03;1.30;;;15.90;95.60;;;;;;4964250;28;20116;-90
2021/09/16 01:34:09;;;;;;;2.30;1.10;;;15.90;95.70;;;;;;4996736;28;20478;-90
2021/09/16 01:36:36;;;;;;;2.78;1.02;;;16.00;95.80;;;;;;4984435;28;20038;-90
2021/09/16 01:39:04;;;;;;;3.47;1.38;;;15.90;95.60;;;;;;4960055;28;20146;-90
2021/09/16 01:41:29;;;;;;;2.83;1.38;;;15.80;95.50;;;;;;4968012;28;20129;-90
2021/09/16 01:43:55;;;;;;;1.70;0.98;;;15.90;95.80;;;;;;4966353;28;20018;-89
2021/09/16 01:46:20;;;;;;;3.05;1.25;;;15.80;95.80;;;;;;4965521;28;20089;-90
2021/09/16 01:48:46;;;;;;;7.25;1.50;;;15.80;95.70;;;;;;4977827;28;20053;-89
2021/09/16 01:51:12;;;;;;;3.33;1.48;;;15.70;95.80;;;;;;4961606;28;20030;-90
2021/09/16 01:53:37;;;;;;;4.40;1.92;;;15.70;96.00;;;;;;4999248;28;20030;-89
2021/09/16 01:56:03;;;;;;;3.15;1.40;;;15.60;95.90;;;;;;4981195;28;20132;-90
2021/09/16 01:58:30;;;;;;;5.40;1.55;;;15.60;96.20;;;;;;4973520;28;20069;-89
2021/09/16 02:00:55;;;;;;;2.67;1.27;;;15.60;96.10;;;;;;4969689;28;20108;-90
2021/09/16 02:03:21;;;;;;;7.05;1.42;;;15.60;95.80;;;;;;4960459;28;20497;-89
2021/09/16 02:05:47;;;;;;;3.38;1.38;;;15.60;96.10;;;;;;4979584;28;20034;-90
2021/09/16 02:08:13;;;;;;;13.18;1.20;;;15.60;96.20;;;;;;4960390;28;20038;-89
2021/09/16 02:10:39;;;;;;;2.45;1.00;;;15.70;96.00;;;;;;4957986;28;20113;-90
2021/09/16 02:13:04;;;;;;;2.75;0.82;;;15.70;96.00;;;;;;4978430;28;20049;-90
2021/09/16 02:15:30;;;;;;;1.25;1.05;;;15.70;95.80;;;;;;4965108;28;20037;-90
2021/09/16 02:17:55;;;;;;;4.70;1.20;;;15.70;95.90;;;;;;4950340;28;20501;-89
2021/09/16 02:20:21;;;;;;;1.50;1.00;;;15.70;95.90;;;;;;4993720;28;20042;-89
2021/09/16 02:22:47;;;;;;;3.42;1.10;;;15.60;95.90;;;;;;4961111;28;20054;-90
2021/09/16 02:25:12;;;;;;;2.35;0.82;;;15.70;95.80;;;;;;4957293;28;20030;-89
2021/09/16 02:27:38;;;;;;;6.38;1.17;;;15.70;95.90;;;;;;4980965;28;20049;-89
2021/09/16 02:30:05;;;;;;;7.88;1.30;;;15.60;95.70;;;;;;4979684;28;20044;-89
2021/09/16 02:32:30;;;;;;;1.65;0.73;;;15.60;95.90;;;;;;4980876;28;20038;-90
2021/09/16 02:34:56;;;;;;;5.75;1.15;;;15.50;95.90;;;;;;4963443;28;20045;-92
2021/09/16 02:37:22;;;;;;;3.30;0.98;;;15.50;95.90;;;;;;4959875;28;20045;-90
2021/09/16 02:39:48;;;;;;;4.25;1.27;;;15.50;96.00;;;;;;4966168;28;20452;-90
2021/09/16 02:42:14;;;;;;;4.20;0.80;;;15.40;95.70;;;;;;4962249;28;20117;-89
2021/09/16 02:44:40;;;;;;;2.13;1.10;;;15.30;95.70;;;;;;4980788;28;20034;-90
2021/09/16 02:47:05;;;;;;;4.95;1.10;;;15.20;95.90;;;;;;4963001;28;20025;-90
2021/09/16 02:49:32;;;;;;;5.05;1.00;;;15.30;95.80;;;;;;4964025;28;20034;-89
2021/09/16 02:52:06;;;;;;;4.43;1.02;;;15.20;95.70;;;;;;4979545;28;20030;-92
2021/09/16 02:54:32;;;;;;;3.58;1.10;;;15.00;95.80;;;;;;4963538;28;20026;-90
2021/09/16 02:56:57;;;;;;;2.53;0.80;;;14.90;96.00;;;;;;4966561;28;20027;-89
2021/09/16 02:59:23;;;;;;;2.42;0.90;;;15.00;96.10;;;;;;4954011;28;20168;-89
2021/09/16 03:01:49;;;;;;;5.00;0.80;;;15.00;95.90;;;;;;4987287;28;20030;-90
2021/09/16 03:04:14;;;;;;;2.17;0.80;;;14.90;95.80;;;;;;4953812;28;20080;-89
2021/09/16 03:06:40;;;;;;;2.55;1.02;;;14.90;96.20;;;;;;4964199;28;20034;-89
2021/09/16 03:09:08;;;;;;;2.50;0.80;;;14.80;96.00;;;;;;4961494;28;20033;-90
2021/09/16 03:11:33;;;;;;;1.77;0.80;;;14.70;96.40;;;;;;4963644;28;20045;-89
2021/09/16 03:13:59;;;;;;;4.45;1.10;;;14.60;95.90;;;;;;4979739;28;20730;-90
2021/09/16 03:16:24;;;;;;;3.03;1.25;;;14.60;96.00;;;;;;4962426;28;20717;-90
2021/09/16 03:18:50;;;;;;;1.77;0.80;;;14.60;96.30;;;;;;4952807;28;20035;-91
2021/09/16 03:21:16;;;;;;;3.60;1.02;;;14.60;96.30;;;;;;4976236;28;20117;-89
2021/09/16 03:23:42;;;;;;;5.30;0.95;;;14.60;96.20;;;;;;4966995;28;20513;-91
2021/09/16 03:26:07;;;;;;;3.40;0.98;;;14.40;96.60;;;;;;4979005;28;20178;-89
2021/09/16 03:28:37;;;;;;;2.03;0.80;;;14.50;96.30;;;;;;4964974;28;20438;-90
2021/09/16 03:31:03;;;;;;;3.88;1.40;;;14.50;96.30;;;;;;4965894;28;20038;-90
2021/09/16 03:33:28;;;;;;;4.03;0.88;;;14.50;96.50;;;;;;4976566;28;20041;-91
2021/09/16 03:35:54;;;;;;;3.88;1.08;;;14.40;96.70;;;;;;4975537;28;20025;-90
2021/09/16 03:38:20;;;;;;;2.13;1.00;;;14.50;96.40;;;;;;4964107;28;20405;-90
2021/09/16 03:40:46;;;;;;;2.10;1.08;;;14.30;96.40;;;;;;4961512;28;20041;-89
2021/09/16 03:43:12;;;;;;;5.47;1.35;;;14.30;96.40;;;;;;4963001;28;20040;-91
2021/09/16 03:45:38;;;;;;;3.65;1.40;;;14.20;96.50;;;;;;4978246;28;20462;-90
2021/09/16 03:48:04;;;;;;;7.47;1.65;;;14.20;96.50;;;;;;4960849;28;20037;-89
2021/09/16 03:50:29;;;;;;;5.80;1.55;;;14.10;96.90;;;;;;4956105;28;20637;-89
2021/09/16 03:52:55;;;;;;;6.53;1.63;;;14.00;96.60;;;;;;4961155;28;20037;-90
2021/09/16 03:55:21;;;;;;;4.40;1.38;;;14.00;97.10;;;;;;4960942;28;20037;-90
2021/09/16 03:57:49;;;;;;;9.80;2.00;;;14.00;96.80;;;;;;4962628;28;20394;-90
2021/09/16 04:00:14;;;;;;;6.53;1.50;;;14.00;96.60;;;;;;4963173;28;20033;-90
2021/09/16 04:02:40;;;;;;;6.55;1.60;;;13.90;96.80;;;;;;4966426;28;20029;-88
2021/09/16 04:05:06;;;;;;;5.15;1.65;;;14.00;97.00;;;;;;4962500;28;20022;-90
2021/09/16 04:07:44;;;;;;;5.55;1.73;;;13.90;96.50;;;;;;4960991;28;20038;-90
2021/09/16 04:10:10;;;;;;;8.38;2.50;;;13.90;96.80;;;;;;4959490;28;20036;-91
2021/09/16 04:12:37;;;;;;;3.63;1.80;;;13.80;97.40;;;;;;4982074;28;20041;-90
2021/09/16 04:15:03;;;;;;;3.65;1.38;;;13.80;97.40;;;;;;4965311;28;20471;-91
2021/09/16 04:17:29;;;;;;;5.97;1.63;;;13.80;97.30;;;;;;4964291;28;20041;-92
2021/09/16 04:19:55;;;;;;;4.43;2.13;;;13.70;96.90;;;;;;4957199;28;20034;-91
2021/09/16 04:22:20;;;;;;;6.40;1.98;;;13.60;97.20;;;;;;4961526;28;20725;-91
2021/09/16 04:24:46;;;;;;;4.50;2.70;;;13.70;97.50;;;;;;4967797;28;20113;-90
2021/09/16 04:27:13;;;;;;;8.65;2.28;;;13.50;97.30;;;;;;4966928;28;20169;-91
2021/09/16 04:29:39;;;;;;;4.97;2.58;;;13.60;97.40;;;;;;4964981;28;20022;-94
2021/09/16 04:32:05;;;;;;;7.07;1.95;;;13.60;97.30;;;;;;4963157;28;20030;-92
2021/09/16 04:34:31;;;;;;;4.75;2.40;;;13.60;97.00;;;;;;4963030;28;20088;-93
2021/09/16 04:36:57;;;;;;;5.97;1.88;;;13.50;97.30;;;;;;4967042;28;20053;-93
2021/09/16 04:39:22;;;;;;;5.53;1.88;;;13.60;97.20;;;;;;4968316;28;20026;-92
2021/09/16 04:41:48;;;;;;;5.93;2.15;;;13.70;97.80;;;;;;4964591;28;20049;-92
2021/09/16 04:44:14;;;;;;;4.15;2.22;;;13.50;97.10;;;;;;4967380;28;20030;-94
2021/09/16 04:46:40;;;;;;;5.07;2.53;;;13.50;97.50;;;;;;4963563;28;20034;-94
2021/09/16 04:49:05;;;;;;;10.75;4.63;;;13.50;97.40;;;;;;4968616;28;20042;-94
2021/09/16 04:51:31;;;;;;;11.10;3.75;;;13.30;97.20;;;;;;4983783;28;20108;-94
2021/09/16 04:53:57;;;;;;;7.60;3.58;;;13.40;97.60;;;;;;4946543;28;20102;-91
2021/09/16 04:56:54;;;;;;;6.13;3.58;;;13.40;97.80;;;;;;4958430;28;20148;-91
2021/09/16 04:59:19;;;;;;;7.38;3.97;;;13.40;97.90;;;;;;4977917;28;20048;-91
2021/09/16 05:01:45;;;;;;;7.60;3.50;;;13.40;97.80;;;;;;4964091;28;20117;-93
2021/09/16 05:04:13;;;;;;;9.27;3.28;;;13.40;97.50;;;;;;4954302;28;20084;-94
2021/09/16 05:06:39;;;;;;;8.73;3.28;;;13.30;97.80;;;;;;4977907;28;20113;-92
2021/09/16 05:09:05;;;;;;;4.60;3.00;;;13.30;97.60;;;;;;4966921;28;20465;-91
2021/09/16 05:11:30;;;;;;;9.27;3.45;;;13.30;97.70;;;;;;4978289;28;20354;-92
2021/09/16 05:13:56;;;;;;;8.18;3.92;;;13.20;97.70;;;;;;4963523;28;20084;-93
2021/09/16 05:16:22;;;;;;;10.90;3.97;;;13.10;97.80;;;;;;4964088;28;20053;-91
2021/09/16 05:18:47;;;;;;;8.30;5.07;;;13.20;97.90;;;;;;4967241;28;20034;-92
2021/09/16 05:21:13;;;;;;;8.40;3.85;;;13.40;98.40;;;;;;4968199;28;20044;-92
2021/09/16 05:23:38;;;;;;;5.68;2.85;;;13.40;98.00;;;;;;4983254;28;20112;-91
2021/09/16 05:26:20;;;;;;;14.77;5.35;;;13.60;97.80;;;;;;4968320;28;20034;-92
2021/09/16 05:28:46;;;;;;;7.78;4.57;;;13.50;98.10;;;;;;4982145;28;20037;-92
2021/09/16 05:31:12;;;;;;;6.30;3.40;;;13.40;98.00;;;;;;4977141;28;20041;-91
2021/09/16 05:33:37;;;;;;;6.35;3.15;;;13.40;98.00;;;;;;5001882;28;20048;-93
2021/09/16 05:36:04;;;;;;;10.43;4.15;;;13.40;98.00;;;;;;4998088;28;20117;-93
2021/09/16 05:38:30;;;;;;;8.95;3.35;;;13.50;98.20;;;;;;4965709;28;20057;-91
2021/09/16 05:40:55;;;;;;;6.57;3.80;;;13.50;97.90;;;;;;4963946;28;20030;-91
2021/09/16 05:43:21;;;;;;;7.40;3.70;;;13.40;98.00;;;;;;4964406;28;20034;-91
2021/09/16 05:45:47;;;;;;;7.30;3.90;;;13.30;98.00;;;;;;4964338;28;20037;-91
2021/09/16 05:48:12;;;;;;;5.40;3.35;;;13.30;98.20;;;;;;4998306;28;20088;-90
2021/09/16 05:50:48;;;;;;;7.28;4.88;;;13.40;98.20;;;;;;4968566;28;20092;-92
2021/09/16 05:53:14;;;;;;;7.95;3.70;;;13.40;98.00;;;;;;4983090;28;20034;-92
2021/09/16 05:55:41;;;;;;;6.78;3.40;;;13.50;98.20;;;;;;4982835;28;20030;-92
2021/09/16 05:58:07;;;;;;;9.95;3.80;;;13.50;98.40;;;;;;4981897;28;20041;-90
2021/09/16 06:00:33;;;;;;;8.13;3.75;;;13.60;98.40;;;;;;4964003;28;20060;-91
2021/09/16 06:02:59;;;;;;;11.25;4.13;;;13.60;98.40;;;;;;4983164;28;20026;-91
2021/09/16 06:05:25;;;;;;;10.20;5.22;;;13.70;98.40;;;;;;4957460;28;20030;-90
2021/09/16 06:07:50;;;;;;;12.82;5.35;;;13.70;98.60;;;;;;4964014;28;20084;-92
2021/09/16 06:10:16;;;;;;;10.95;4.78;;;13.80;98.50;;;;;;4944266;28;20034;-90
2021/09/16 06:12:42;;;;;;;7.03;4.57;;;13.80;98.50;;;;;;4964950;28;20023;-90
2021/09/16 06:15:08;;;;;;;8.55;3.67;;;13.80;98.70;;;;;;4978218;28;20106;-90
2021/09/16 06:17:35;;;;;;;7.90;3.38;;;13.80;98.60;;;;;;4963970;28;20034;-92
2021/09/16 06:20:01;;;;;;;6.93;3.08;;;13.90;98.50;;;;;;4962956;28;20548;-90
2021/09/16 06:22:27;;;;;;;10.35;4.45;;;14.00;98.90;;;;;;4962416;28;20059;-92
2021/09/16 06:24:54;;;;;;;8.90;5.38;;;14.00;98.80;;;;;;4957555;28;20030;-90
2021/09/16 06:27:20;;;;;;;8.48;3.50;;;14.00;98.70;;;;;;4960683;28;20068;-92
2021/09/16 06:29:46;;;;;;;7.45;4.07;;;14.20;98.20;;;;;;4967066;28;20117;-91
2021/09/16 06:32:17;;;;;;;8.40;3.65;;;14.30;98.40;;;;;;4997862;28;20026;-92
2021/09/16 06:34:52;;;;;;;12.30;5.32;;;14.30;98.30;;;;;;4963398;28;20072;-91
2021/09/16 06:37:18;;;;;;;6.13;3.77;;;14.40;98.70;;;;;;4965840;28;20030;-93
2021/09/16 06:39:44;;;;;;;4.63;2.97;;;14.30;98.60;;;;;;4996689;28;20018;-91
2021/09/16 06:42:10;;;;;;;6.85;2.85;;;14.40;98.30;;;;;;4968027;28;20394;-91
2021/09/16 06:44:38;;;;;;;7.13;3.58;;;14.50;98.20;;;;;;4957338;28;20030;-92
2021/09/16 06:47:04;;;;;;;7.28;4.95;;;14.60;98.30;;;;;;4963469;28;20056;-90
2021/09/16 06:49:33;;;;;;;6.15;3.65;;;14.60;98.50;;;;;;4973664;28;20038;-90
2021/09/16 06:51:59;;;;;;;7.55;3.25;;;14.70;98.30;;;;;;4961468;28;20095;-89
2021/09/16 06:54:24;;;;;;;6.40;3.47;;;14.70;98.30;;;;;;4971592;28;20065;-90
2021/09/16 06:56:50;;;;;;;6.78;3.67;;;14.70;98.10;;;;;;4959252;28;20034;-90
2021/09/16 06:59:41;;;;;;;8.25;2.65;;;14.70;98.20;;;;;;4981766;28;20078;-89
2021/09/16 07:02:07;;;;;;;9.90;3.78;;;14.70;98.30;;;;;;4986876;28;20401;-89
2021/09/16 07:04:35;;;;;;;13.50;4.80;;;14.70;98.30;;;;;;4959208;28;20037;-92
2021/09/16 07:07:04;;;;;;;5.35;3.42;;;14.60;98.10;;;;;;4979821;28;20093;-90
2021/09/16 07:09:33;;;;;;;7.60;3.90;;;14.70;98.30;;;;;;4962637;28;20030;-90
2021/09/16 07:12:00;;;;;;;8.80;3.28;;;14.60;98.10;;;;;;4965230;28;20038;-91
2021/09/16 07:14:27;;;;;;;9.02;3.40;;;14.60;98.30;;;;;;4963495;28;20113;-91
2021/09/16 07:16:58;;;;;;;3.95;2.70;;;14.60;98.30;;;;;;4993395;28;20688;-92
2021/09/16 07:19:23;;;;;;;8.68;3.25;;;14.60;98.40;;;;;;4963276;28;20034;-90
2021/09/16 07:21:49;;;;;;;9.85;3.50;;;14.60;98.40;;;;;;4955385;28;20453;-90
2021/09/16 07:24:15;;;;;;;7.38;2.55;;;14.60;98.30;;;;;;4959490;28;20116;-91
2021/09/16 07:26:42;;;;;;;6.38;3.42;;;14.70;98.30;;;;;;4961626;28;20037;-89
2021/09/16 07:29:09;;;;;;;5.32;3.70;;;14.70;98.50;;;;;;4995045;28;20042;-90
2021/09/16 07:31:35;;;;;;;5.38;3.25;;;14.70;98.60;;;;;;4962715;28;20040;-89
2021/09/16 07:34:01;;;;;;;8.10;3.90;;;14.60;98.70;;;;;;4960356;28;20069;-90
2021/09/16 07:36:26;;;;;;;6.57;3.40;;;14.70;98.50;;;;;;4961849;28;20045;-90
2021/09/16 07:38:52;;;;;;;7.38;2.35;;;14.70;98.40;;;;;;4965453;28;20109;-90
2021/09/16 07:41:25;;;;;;;8.15;3.50;;;14.80;98.80;;;;;;4961216;28;20034;-89
2021/09/16 07:43:51;;;;;;;6.00;2.90;;;14.80;98.60;;;;;;4985697;28;20054;-90
2021/09/16 07:46:16;;;;;;;4.35;3.08;;;14.80;98.80;;;;;;4966864;28;20037;-90
2021/09/16 07:48:42;;;;;;;12.20;3.85;;;14.80;98.80;;;;;;4971140;28;20026;-89
2021/09/16 07:51:08;;;;;;;5.70;3.63;;;14.80;98.50;;;;;;4972625;28;20041;-92
2021/09/16 07:53:33;;;;;;;7.75;4.38;;;14.80;98.50;;;;;;4956941;28;20402;-90
2021/09/16 07:55:59;;;;;;;4.45;2.97;;;14.90;98.80;;;;;;4953401;28;20092;-91
2021/09/16 07:58:25;;;;;;;6.55;3.67;;;14.90;98.40;;;;;;4977046;28;20510;-90
2021/09/16 08:00:53;;;;;;;6.13;4.20;;;15.00;98.70;;;;;;4979062;28;20041;-92
2021/09/16 08:03:19;;;;;;;9.15;4.82;;;15.10;98.50;;;;;;4982203;28;20036;-90
2021/09/16 08:05:45;;;;;;;8.13;4.25;;;15.20;98.90;;;;;;4958528;28;20054;-90
2021/09/16 08:08:12;;;;;;;8.45;3.70;;;15.40;99.10;;;;;;4997708;28;20518;-90
2021/09/16 08:10:38;;;;;;;6.97;4.57;;;15.40;98.20;;;;;;4967883;28;20505;-90
2021/09/16 08:13:04;;;;;;;9.27;5.75;;;15.60;99.40;;;;;;4963174;28;20089;-90
2021/09/16 08:15:30;;;;;;;6.07;3.42;;;15.70;99.10;;;;;;4970305;28;20052;-90
2021/09/16 08:17:55;;;;;;;9.43;4.28;;;15.90;99.30;;;;;;4961485;28;20098;-93
2021/09/16 08:20:21;;;;;;;8.32;3.72;;;16.10;98.70;;;;;;5007678;28;20037;-93
2021/09/16 08:22:47;;;;;;;8.02;4.57;;;16.10;99.10;;;;;;4961686;28;20033;-93
2021/09/16 08:25:13;;;;;;;8.02;4.68;;;16.30;99.60;;;;;;4961521;28;20172;-90
2021/09/16 08:27:39;;;;;;;8.48;4.13;;;16.40;99.10;;;;;;4965767;28;20038;-92
2021/09/16 08:30:06;;;;;;;6.97;5.15;;;16.30;98.50;;;;;;4958538;28;20056;-90
2021/09/16 08:32:32;;;;;;;7.10;4.05;;;16.50;99.30;;;;;;4959003;28;20058;-93
2021/09/16 08:34:58;;;;;;;9.02;5.65;;;16.70;99.00;;;;;;4984600;28;20120;-91
2021/09/16 08:37:24;;;;;;;6.90;4.13;;;16.80;98.90;;;;;;4966380;28;20038;-93
2021/09/16 08:39:50;;;;;;;6.30;3.35;;;16.80;98.30;;;;;;4963590;28;20068;-90
2021/09/16 08:42:16;;;;;;;8.80;4.57;;;17.10;99.60;;;;;;4966783;28;20044;-92
2021/09/16 08:44:42;;;;;;;9.93;4.45;;;17.20;99.00;;;;;;4959915;28;20035;-91
2021/09/16 08:47:09;;;;;;;7.22;4.38;;;17.40;99.40;;;;;;4965160;28;20026;-90
2021/09/16 08:49:47;;;;;;;10.85;4.93;;;17.60;99.70;;;;;;4983371;28;20038;-91
2021/09/16 08:52:13;;;;;;;8.52;4.63;;;17.60;99.30;;;;;;5002231;28;20142;-92
2021/09/16 08:54:41;;;;;;;9.60;5.97;;;17.70;99.00;;;;;;4975221;28;20041;-91
2021/09/16 08:57:09;;;;;;;8.85;4.65;;;17.80;99.10;;;;;;4964854;28;20125;-91
2021/09/16 08:59:35;;;;;;;9.25;4.95;;;17.90;98.30;;;;;;4954351;28;20039;-92
2021/09/16 09:02:01;;;;;;;8.90;5.18;;;17.90;97.20;;;;;;4964804;28;20041;-91
2021/09/16 09:04:26;;;;;;;14.20;6.55;;;18.20;99.10;;;;;;4964681;28;20053;-91
2021/09/16 09:07:02;;;;;;;12.23;7.93;;;18.50;99.00;;;;;;4966911;28;20030;-90
2021/09/16 09:09:29;;;;;;;10.80;5.40;;;18.70;99.10;;;;;;4965520;28;20030;-92
2021/09/16 09:12:14;;;;;;;10.98;6.07;;;18.80;98.10;;;;;;4979500;28;20053;-91
2021/09/16 09:14:42;;;;;;;7.93;6.18;;;18.90;98.00;;;;;;5000471;28;20474;-90
2021/09/16 09:17:21;;;;;;;8.57;5.78;;;19.20;99.60;;;;;;4959593;28;20033;-91
2021/09/16 09:19:54;;;;;;;13.20;6.80;;;19.30;99.20;;;;;;4979025;28;20028;-92
2021/09/16 09:22:34;;;;;;;12.63;5.30;;;19.40;99.50;;;;;;4965694;28;20038;-91
2021/09/16 09:25:04;;;;;;;7.95;4.82;;;19.30;98.00;;;;;;4980965;28;20037;-90
2021/09/16 09:27:32;;;;;;;11.23;5.00;;;19.60;98.00;;;;;;4968183;28;20324;-92
2021/09/16 09:30:14;;;;;;;10.90;4.55;;;19.60;98.60;;;;;;4980804;28;20326;-91
2021/09/16 09:33:04;;;;;;;11.32;5.18;;;19.80;98.20;;;;;;4967129;28;20041;-91
2021/09/16 09:35:37;;;;;;;9.10;5.32;;;20.00;98.70;;;;;;4995454;28;20050;-89
2021/09/16 09:38:18;;;;;;;5.85;4.30;;;20.10;98.70;;;;;;4999284;28;20049;-92
2021/09/16 09:40:44;;;;;;;6.43;4.82;;;20.20;97.90;;;;;;4959932;28;20061;-91
2021/09/16 09:43:59;;;;;;;8.73;4.50;;;20.20;98.20;;;;;;4965036;28;20025;-92
2021/09/16 09:53:13;;;;;;;8.57;4.35;;;20.80;97.70;;;;;;4999512;28;20030;-92
2021/09/16 09:58:45;;;;;;;5.15;3.45;;;20.90;97.10;;;;;;4925929;28;20040;-93
2021/09/16 10:01:34;;;;;;;9.75;5.00;;;20.90;95.50;;;;;;4962135;28;20042;-90
2021/09/16 10:04:20;;;;;;;5.32;3.78;;;21.00;97.40;;;;;;4943903;28;20113;-90
2021/09/16 10:06:54;;;;;;;3.90;2.97;;;21.20;97.10;;;;;;4976678;28;20038;-93
2021/09/16 10:09:21;;;;;;;7.25;3.50;;;21.30;95.60;;;;;;4956915;28;20037;-90
2021/09/16 10:11:48;;;;;;;5.80;2.83;;;21.10;96.60;;;;;;4945378;28;20421;-92
2021/09/16 10:14:50;;;;;;;5.20;2.45;;;21.40;96.40;;;;;;4928964;28;20051;-93
2021/09/16 10:17:22;;;;;;;8.80;2.38;;;21.40;95.70;;;;;;4198062;29;10000006;-92
2021/09/16 10:19:54;;;;;;;4.90;2.80;;;21.50;94.90;;;;;;4934541;28;20042;-92
2021/09/16 10:22:23;;;;;;;5.70;3.28;;;21.60;96.40;;;;;;4968552;28;20037;-93
2021/09/16 10:25:03;;;;;;;4.50;2.38;;;21.70;94.60;;;;;;4944519;28;20053;-92
2021/09/16 10:27:38;;;;;;;4.00;3.05;;;21.90;95.80;;;;;;4969379;28;20041;-91
2021/09/16 10:30:22;;;;;;;;;;;22.00;95.80;;;;;;4939462;28;20022;-92
2021/09/16 10:33:22;;;;;;;11.10;3.08;;;22.10;95.10;;;;;;4983598;28;19929;-91
2021/09/16 10:35:57;;;;;;;3.88;2.20;;;22.20;95.20;;;;;;4968088;28;21245;-93
2021/09/16 10:39:01;;;;;;;5.50;2.38;;;22.40;95.30;;;;;;4982149;28;20509;-93
2021/09/16 10:41:29;;;;;;;5.03;2.35;;;22.80;94.90;;;;;;4899000;29;20484;-91
2021/09/16 10:43:57;;;;;;;6.63;2.70;;;22.70;93.50;;;;;;4942726;28;20033;-91
2021/09/16 10:46:37;;;;;;;4.82;2.17;;;22.70;94.40;;;;;;4972533;28;20045;-90
2021/09/16 10:49:24;;;;;;;5.45;2.13;;;22.80;94.60;;;;;;4976582;28;20034;-92
2021/09/16 10:51:53;;;;;;;6.65;1.90;;;22.80;93.00;;;;;;4995595;28;20108;-91
2021/09/16 10:54:24;;;;;;;3.97;1.80;;;22.90;93.90;;;;;;4989282;28;20034;-92
2021/09/16 10:57:00;;;;;;;4.05;1.92;;;22.90;93.80;;;;;;5000736;28;20038;-90
2021/09/16 11:00:04;;;;;;;3.85;2.33;;;23.10;94.10;;;;;;5001246;28;20033;-91
2021/09/16 11:02:40;;;;;;;5.22;2.35;;;23.00;93.80;;;;;;4888816;29;20067;-90
2021/09/16 11:05:10;;;;;;;3.33;1.80;;;23.00;93.40;;;;;;4988641;28;20026;-91
2021/09/16 11:07:39;;;;;;;4.07;2.50;;;23.00;92.60;;;;;;4986555;28;20030;-91
2021/09/16 11:10:16;;;;;;;5.82;1.90;;;23.00;93.20;;;;;;4998278;28;20022;-92
2021/09/16 11:12:53;;;;;;;2.78;2.30;;;23.10;93.20;;;;;;5001714;28;20774;-92
2021/09/16 11:15:33;;;;;;;5.15;2.47;;;23.10;91.80;;;;;;5012063;28;20150;-93
2021/09/16 11:18:02;;;;;;;3.28;1.95;;;23.10;92.40;;;;;;4999655;28;20049;-91
2021/09/16 11:20:28;;;;;;;2.30;1.33;;;23.20;92.70;;;;;;4983222;28;20076;-91
2021/09/16 11:22:54;;;;;;;4.32;2.15;;;23.20;92.60;;;;;;4971900;28;20034;-92
2021/09/16 11:25:20;;;;;;;3.03;1.70;;;23.30;91.40;;;;;;4968380;28;20064;-91
2021/09/16 11:27:46;;;;;;;3.17;2.00;;;23.50;91.10;;;;;;4978982;28;20045;-92
2021/09/16 11:30:17;;;;;;;4.43;2.25;;;23.70;90.70;;;;;;4990194;28;20041;-90
2021/09/16 11:32:43;;;;;;;6.72;1.73;;;23.70;91.80;;;;;;4962018;28;20038;-92
2021/09/16 11:35:14;;;;;;;4.82;1.80;;;23.90;89.80;;;;;;4968254;28;20061;-90
2021/09/16 11:37:50;;;;;;;3.85;1.92;;;23.90;91.00;;;;;;4967498;28;20050;-92
2021/09/16 11:40:18;;;;;;;2.80;1.38;;;23.80;90.30;;;;;;4967263;28;20556;-93
2021/09/16 11:42:47;;;;;;;2.33;1.42;;;23.70;91.30;;;;;;4980195;28;20053;-91
2021/09/16 11:45:20;;;;;;;5.13;1.73;;;23.60;90.10;;;;;;4989405;28;20033;-91
2021/09/16 11:47:53;;;;;;;2.85;1.92;;;23.60;90.10;;;;;;4965103;28;20025;-90
2021/09/16 11:50:30;;;;;;;4.75;1.85;;;23.50;89.50;;;;;;4983734;28;20026;-92
2021/09/16 11:53:16;;;;;;;5.88;3.03;;;23.50;90.90;;;;;;4961888;28;20013;-92
2021/09/16 11:55:50;;;;;;;6.57;2.13;;;23.40;91.40;;;;;;4972042;28;20129;-93
2021/09/16 11:58:29;;;;;;;6.10;2.00;;;23.40;89.80;;;;;;4967215;28;20034;-92
2021/09/16 12:00:59;;;;;;;4.07;1.77;;;23.40;90.30;;;;;;5001165;28;20033;-90
2021/09/16 12:03:29;;;;;;;3.17;1.70;;;23.20;90.60;;;;;;4985771;28;20038;-91
2021/09/16 12:05:58;;;;;;;3.63;1.90;;;23.10;91.10;;;;;;4982922;28;20034;-92
2021/09/16 12:08:31;;;;;;;3.28;1.77;;;23.00;91.30;;;;;;4980817;28;20038;-91
2021/09/16 12:11:08;;;;;;;3.28;1.40;;;22.80;91.10;;;;;;4973825;28;20046;-90
2021/09/16 12:13:52;;;;;;;6.40;1.80;;;22.80;91.30;;;;;;4959657;28;20041;-91
2021/09/16 12:16:22;;;;;;;3.05;1.83;;;22.80;91.00;;;;;;4978892;28;20394;-89
2021/09/16 12:18:49;;;;;;;8.85;1.55;;;22.70;90.70;;;;;;4963935;28;20066;-91
2021/09/16 12:21:28;;;;;;;3.70;2.65;;;22.70;90.50;;;;;;4963299;28;20029;-88
2021/09/16 12:23:54;;;;;;;5.85;2.00;;;22.70;91.30;;;;;;4971857;28;20040;-91
2021/09/16 12:26:27;;;;;;;4.57;2.20;;;22.70;91.20;;;;;;4965083;28;20044;-90
2021/09/16 12:28:59;;;;;;;4.13;2.15;;;22.80;90.60;;;;;;4976260;28;20037;-91
2021/09/16 12:32:00;;;;;;;2.40;2.17;;;22.80;90.90;;;;;;4959152;28;20022;-92
2021/09/16 12:34:32;;;;;;;3.58;2.00;;;22.90;90.90;;;;;;4990056;28;20052;-90
2021/09/16 12:37:18;;;;;;;4.15;1.90;;;23.00;90.40;;;;;;4960837;28;20037;-91
2021/09/16 12:40:05;;;;;;;5.90;2.00;;;23.00;90.10;;;;;;4962568;28;20125;-91
2021/09/16 12:42:36;;;;;;;3.55;2.30;;;23.00;90.20;;;;;;4948467;28;20041;-91
2021/09/16 12:45:08;;;;;;;4.63;2.53;;;23.00;90.30;;;;;;4959746;28;20133;-90
2021/09/16 12:47:53;;;;;;;5.05;2.45;;;23.10;90.00;;;;;;4973460;28;20030;-92
2021/09/16 12:50:35;;;;;;;4.45;2.28;;;23.10;90.40;;;;;;4987292;28;20023;-91
2021/09/16 12:53:01;;;;;;;5.28;3.05;;;23.20;90.20;;;;;;4966768;28;20023;-90
2021/09/16 12:55:30;;;;;;;4.32;3.22;;;23.30;89.30;;;;;;4976321;28;20057;-91
2021/09/16 12:58:04;;;;;;;6.53;2.40;;;23.10;90.30;;;;;;4985693;28;20045;-91
2021/09/16 13:00:33;;;;;;;6.80;3.80;;;23.20;90.00;;;;;;4964279;28;20605;-93
2021/09/16 13:03:04;;;;;;;4.53;2.92;;;23.10;90.00;;;;;;4957108;28;20017;-94
2021/09/16 13:05:32;;;;;;;2.90;2.47;;;23.20;90.00;;;;;;4973429;28;20090;-91